Time;durP1;ratioP1;P1;durP2;ratioP2;P2;SDS_P1;SDS_P2;PMS_P1;PMS_P2;Temp;Humidity;BMP_temperature;BMP_pressure;BME280_temperature;BME280_humidity;BME280_pressure;Samples;Min_cycle;Max_cycle;Signal;HPM_P1;HPM_P2
2022/07/10 00:00:25;;;;;;;9.00;2.80;;;16.00;99.90;;;;;;5015658;28;20569;-83
2022/07/10 00:02:52;;;;;;;4.47;2.00;;;16.00;99.90;;;;;;5016953;28;20484;-83
2022/07/10 00:05:18;;;;;;;5.07;1.87;;;16.00;99.90;;;;;;5017899;28;20885;-83
2022/07/10 00:07:44;;;;;;;3.97;2.03;;;15.90;99.90;;;;;;5016484;28;20431;-83
2022/07/10 00:10:10;;;;;;;3.80;1.80;;;15.90;99.90;;;;;;5018423;28;21000;-83
2022/07/10 00:12:36;;;;;;;9.70;2.50;;;15.90;99.90;;;;;;5018102;28;20243;-83
2022/07/10 00:15:03;;;;;;;5.40;2.23;;;15.90;99.90;;;;;;5012476;28;20445;-83
2022/07/10 00:17:28;;;;;;;5.33;2.53;;;15.80;99.90;;;;;;5013756;28;20440;-83
2022/07/10 00:19:54;;;;;;;6.53;2.00;;;15.80;99.90;;;;;;5015438;28;20467;-83
2022/07/10 00:22:19;;;;;;;3.60;2.20;;;15.70;1.00;;;;;;5017005;28;20215;-83
2022/07/10 00:24:46;;;;;;;9.53;2.20;;;15.70;1.00;;;;;;5017302;28;20219;-83
2022/07/10 00:27:11;;;;;;;7.97;2.60;;;15.70;1.00;;;;;;5013660;28;20185;-83
2022/07/10 00:29:37;;;;;;;6.23;2.80;;;15.70;1.00;;;;;;5015881;28;20492;-83
2022/07/10 00:32:03;;;;;;;6.93;2.83;;;15.60;1.00;;;;;;5014754;28;20196;-83
2022/07/10 00:34:28;;;;;;;8.77;2.50;;;15.60;1.00;;;;;;5018059;28;20188;-83
2022/07/10 00:36:54;;;;;;;5.77;2.87;;;15.60;1.00;;;;;;5014555;28;20447;-83
2022/07/10 00:39:20;;;;;;;3.00;2.00;;;15.60;1.00;;;;;;5016059;28;20222;-83
2022/07/10 00:41:45;;;;;;;5.70;2.17;;;15.70;1.00;;;;;;5016754;28;20253;-83
2022/07/10 00:44:11;;;;;;;3.37;1.97;;;15.80;1.00;;;;;;5015378;28;20204;-83
2022/07/10 00:46:36;;;;;;;3.73;1.93;;;15.80;1.00;;;;;;5012534;28;20181;-83
2022/07/10 00:49:02;;;;;;;4.60;1.80;;;15.80;1.00;;;;;;5016432;28;20724;-83
2022/07/10 00:51:30;;;;;;;5.30;2.40;;;15.90;1.00;;;;;;5016693;28;20544;-83
2022/07/10 00:53:56;;;;;;;6.83;2.80;;;16.00;1.00;;;;;;5015090;28;20600;-83
2022/07/10 00:56:26;;;;;;;6.93;2.30;;;16.00;1.00;;;;;;5016857;28;20494;-83
2022/07/10 00:58:52;;;;;;;8.43;2.53;;;16.00;1.00;;;;;;5011334;28;20483;-83
2022/07/10 01:01:18;;;;;;;3.60;1.70;;;16.10;1.00;;;;;;5014836;28;20432;-83
2022/07/10 01:03:45;;;;;;;4.77;1.80;;;16.10;1.00;;;;;;5019306;28;20477;-83
2022/07/10 01:06:11;;;;;;;5.13;2.47;;;16.10;1.00;;;;;;5019156;28;20448;-83
2022/07/10 01:08:37;;;;;;;9.90;2.23;;;16.10;1.00;;;;;;5017450;28;21619;-83
2022/07/10 01:11:03;;;;;;;7.53;1.80;;;16.10;1.00;;;;;;5015337;28;20937;-83
2022/07/10 01:13:29;;;;;;;6.87;2.23;;;16.10;1.00;;;;;;5011773;28;20471;-83
2022/07/10 01:15:55;;;;;;;4.50;1.90;;;16.10;1.00;;;;;;5013118;28;20650;-83
2022/07/10 01:18:21;;;;;;;3.70;1.90;;;16.10;1.00;;;;;;5015368;28;20475;-83
2022/07/10 01:20:56;;;;;;;2.70;1.73;;;16.10;1.00;;;;;;5014409;28;20490;-83
2022/07/10 01:23:22;;;;;;;3.20;2.00;;;16.10;1.00;;;;;;5016076;28;20240;-83
2022/07/10 01:25:49;;;;;;;5.80;2.13;;;16.10;1.00;;;;;;5030680;28;20445;-83
2022/07/10 01:28:20;;;;;;;4.30;1.90;;;16.10;1.00;;;;;;5031760;28;20455;-83
2022/07/10 01:30:46;;;;;;;7.10;1.73;;;16.10;1.00;;;;;;5011831;28;20486;-83
2022/07/10 01:33:11;;;;;;;4.50;1.87;;;16.00;1.00;;;;;;5030306;28;20464;-83
2022/07/10 01:35:37;;;;;;;4.43;2.13;;;16.00;1.00;;;;;;5010852;28;20616;-83
2022/07/10 01:38:03;;;;;;;5.07;1.80;;;16.10;1.00;;;;;;5013898;28;20265;-83
2022/07/10 01:40:28;;;;;;;4.60;2.03;;;16.10;1.00;;;;;;5014340;28;20205;-83
2022/07/10 01:42:54;;;;;;;4.60;1.87;;;16.10;1.00;;;;;;5014428;28;20229;-83
2022/07/10 01:45:20;;;;;;;4.97;1.93;;;16.10;1.00;;;;;;5014418;28;20240;-83
2022/07/10 01:47:45;;;;;;;5.07;1.83;;;16.10;1.00;;;;;;5012688;28;20193;-83
2022/07/10 01:50:11;;;;;;;7.27;2.13;;;16.10;1.00;;;;;;5012285;28;20451;-83
2022/07/10 01:52:37;;;;;;;6.10;2.10;;;16.10;1.00;;;;;;5015017;28;20252;-83
2022/07/10 01:55:04;;;;;;;10.07;2.80;;;16.10;1.00;;;;;;5013106;28;20197;-83
2022/07/10 01:57:29;;;;;;;5.90;2.13;;;16.10;1.00;;;;;;5013884;28;20194;-83
2022/07/10 01:59:55;;;;;;;8.20;2.00;;;16.10;1.00;;;;;;5009701;28;20474;-83
2022/07/10 02:02:21;;;;;;;6.53;2.20;;;16.10;1.00;;;;;;5011421;28;20227;-83
2022/07/10 02:04:47;;;;;;;6.60;2.43;;;16.10;1.00;;;;;;5015729;28;20698;-83
2022/07/10 02:07:14;;;;;;;13.27;2.70;;;16.10;1.00;;;;;;5010647;28;20448;-83
2022/07/10 02:09:41;;;;;;;3.83;2.00;;;16.10;1.00;;;;;;5014480;28;20641;-83
2022/07/10 02:12:12;;;;;;;9.83;2.10;;;16.10;1.00;;;;;;5013546;28;20431;-83
2022/07/10 02:14:38;;;;;;;5.00;1.97;;;16.00;1.00;;;;;;5012104;28;20514;-83
2022/07/10 02:17:04;;;;;;;5.20;1.93;;;16.00;1.00;;;;;;5013068;28;20436;-82
2022/07/10 02:19:30;;;;;;;4.10;1.70;;;16.00;1.00;;;;;;5014656;28;20433;-83
2022/07/10 02:21:56;;;;;;;7.93;2.73;;;15.90;1.00;;;;;;5014981;28;20479;-83
2022/07/10 02:24:22;;;;;;;8.87;2.53;;;15.90;1.00;;;;;;5032518;28;20209;-83
2022/07/10 02:26:48;;;;;;;5.30;2.27;;;15.90;1.00;;;;;;5017569;28;20448;-83
2022/07/10 02:29:14;;;;;;;7.77;1.90;;;15.90;1.00;;;;;;5016841;28;20185;-83
2022/07/10 02:31:42;;;;;;;7.47;1.93;;;15.90;1.00;;;;;;5015067;28;20517;-83
2022/07/10 02:34:08;;;;;;;9.37;2.07;;;15.90;1.00;;;;;;5017934;28;20214;-83
2022/07/10 02:36:34;;;;;;;3.90;2.47;;;15.90;1.00;;;;;;5018346;28;20452;-83
2022/07/10 02:39:00;;;;;;;8.30;2.77;;;15.80;1.00;;;;;;5017948;28;20440;-83
2022/07/10 02:41:26;;;;;;;4.40;2.30;;;15.80;1.00;;;;;;5017490;28;20450;-83
2022/07/10 02:43:52;;;;;;;8.43;2.40;;;15.70;1.00;;;;;;5013757;28;20973;-83
2022/07/10 02:46:17;;;;;;;3.93;2.20;;;15.70;1.00;;;;;;5018188;28;20230;-83
2022/07/10 02:48:43;;;;;;;3.97;2.13;;;15.60;1.00;;;;;;5017761;28;20297;-83
2022/07/10 02:51:08;;;;;;;6.33;2.40;;;15.60;1.00;;;;;;5030060;28;20201;-82
2022/07/10 02:53:34;;;;;;;6.10;2.53;;;15.60;1.00;;;;;;5019828;28;20220;-83
2022/07/10 02:55:59;;;;;;;7.17;2.50;;;15.50;1.00;;;;;;5018368;28;20198;-83
2022/07/10 02:58:25;;;;;;;6.90;2.23;;;15.40;1.00;;;;;;5014686;28;20209;-83
2022/07/10 03:00:51;;;;;;;6.47;2.33;;;15.40;1.00;;;;;;5018625;28;20197;-83
2022/07/10 03:03:17;;;;;;;9.23;3.47;;;15.40;34.90;;;;;;5016226;28;20489;-83
2022/07/10 03:05:46;;;;;;;9.27;2.93;;;15.40;57.90;;;;;;5016540;28;20185;-83
2022/07/10 03:08:12;;;;;;;3.30;2.20;;;15.40;99.90;;;;;;5011880;28;20569;-83
2022/07/10 03:10:38;;;;;;;4.70;2.90;;;15.30;99.90;;;;;;5033743;28;20442;-83
2022/07/10 03:13:03;;;;;;;6.13;2.80;;;15.30;99.90;;;;;;5017811;28;20546;-83
2022/07/10 03:15:29;;;;;;;6.60;2.80;;;15.30;99.90;;;;;;5016950;28;20437;-83
2022/07/10 03:17:55;;;;;;;8.40;2.57;;;15.40;99.90;;;;;;5014390;28;20208;-83
2022/07/10 03:20:20;;;;;;;6.97;2.47;;;15.40;99.90;;;;;;5015720;28;20189;-82
2022/07/10 03:22:46;;;;;;;6.00;2.70;;;15.30;99.90;;;;;;5013865;28;20246;-83
2022/07/10 03:25:11;;;;;;;10.73;3.10;;;15.40;99.90;;;;;;5016318;28;20177;-83
2022/07/10 03:27:37;;;;;;;9.23;3.37;;;15.40;99.90;;;;;;5018314;28;20208;-83
2022/07/10 03:30:03;;;;;;;3.73;2.50;;;15.40;99.90;;;;;;5013664;28;20216;-83
2022/07/10 03:32:29;;;;;;;5.33;2.70;;;15.40;99.90;;;;;;5017925;28;20207;-83
2022/07/10 03:34:55;;;;;;;8.63;3.20;;;15.40;99.90;;;;;;5014249;28;20455;-83
2022/07/10 03:37:20;;;;;;;7.47;2.80;;;15.40;99.90;;;;;;5032845;28;20272;-83
2022/07/10 03:39:46;;;;;;;7.20;3.03;;;15.40;99.90;;;;;;5016758;28;20197;-83
2022/07/10 03:42:11;;;;;;;4.40;2.70;;;15.40;99.90;;;;;;5015990;28;20208;-83
2022/07/10 03:44:37;;;;;;;8.70;3.10;;;15.40;99.90;;;;;;5015227;28;20239;-83
2022/07/10 03:47:03;;;;;;;6.60;2.70;;;15.40;99.90;;;;;;5016122;28;20197;-83
2022/07/10 03:49:28;;;;;;;7.00;3.00;;;15.40;99.90;;;;;;5024564;28;20188;-83
2022/07/10 03:51:54;;;;;;;4.47;3.27;;;15.40;99.90;;;;;;5015960;28;20451;-83
2022/07/10 03:54:19;;;;;;;4.30;2.50;;;15.50;99.90;;;;;;5017295;28;20702;-83
2022/07/10 03:59:30;;;;;;;7.60;3.00;;;15.60;99.90;;;;;;5016152;28;20444;-83
2022/07/10 04:01:56;;;;;;;7.63;2.50;;;15.60;99.90;;;;;;5014174;28;20468;-83
2022/07/10 04:04:21;;;;;;;8.37;2.90;;;15.70;99.90;;;;;;5016105;28;20208;-84
2022/07/10 04:06:47;;;;;;;5.07;2.77;;;15.70;99.90;;;;;;5017913;28;20276;-84
2022/07/10 04:09:12;;;;;;;6.63;2.97;;;15.70;99.90;;;;;;5012918;28;20690;-84
2022/07/10 04:11:38;;;;;;;7.70;3.47;;;15.80;99.90;;;;;;5016948;28;20208;-83
2022/07/10 04:14:04;;;;;;;4.00;2.23;;;15.80;99.90;;;;;;5016490;28;20933;-84
2022/07/10 04:16:29;;;;;;;3.97;2.33;;;15.80;99.90;;;;;;5014161;28;20561;-84
2022/07/10 04:18:55;;;;;;;8.73;2.83;;;15.90;99.90;;;;;;5014337;28;20194;-83
2022/07/10 04:21:20;;;;;;;3.70;2.60;;;16.00;94.60;;;;;;5011006;28;20190;-84
2022/07/10 04:23:46;;;;;;;6.00;2.40;;;16.10;42.10;;;;;;5014662;28;20210;-84
2022/07/10 04:26:11;;;;;;;7.87;2.60;;;16.10;14.20;;;;;;5015536;28;20649;-84
2022/07/10 04:28:37;;;;;;;6.00;2.50;;;16.10;1.00;;;;;;5014435;28;20272;-84
2022/07/10 04:31:02;;;;;;;8.50;2.80;;;16.10;1.00;;;;;;5010643;28;20215;-83
2022/07/10 04:33:28;;;;;;;5.30;2.77;;;16.00;1.00;;;;;;5012277;28;20292;-84
2022/07/10 04:35:53;;;;;;;6.57;2.90;;;16.10;1.00;;;;;;5015837;28;20194;-84
2022/07/10 04:38:19;;;;;;;8.13;3.30;;;16.10;1.00;;;;;;5029639;28;20212;-83
2022/07/10 04:40:44;;;;;;;7.10;2.87;;;16.10;1.00;;;;;;5014733;28;20662;-84
2022/07/10 04:43:11;;;;;;;4.10;2.83;;;16.20;1.00;;;;;;5030824;28;20221;-84
2022/07/10 04:45:37;;;;;;;5.77;2.67;;;16.20;1.00;;;;;;5014621;28;20175;-84
2022/07/10 04:48:04;;;;;;;14.57;3.23;;;16.20;1.00;;;;;;5016112;28;20447;-83
2022/07/10 04:50:30;;;;;;;7.43;2.70;;;16.10;1.00;;;;;;5014602;28;20433;-83
2022/07/10 04:52:56;;;;;;;8.63;3.37;;;16.10;1.00;;;;;;5016387;28;20479;-83
2022/07/10 04:55:22;;;;;;;6.63;3.60;;;16.20;1.00;;;;;;5032277;28;20501;-84
2022/07/10 04:57:47;;;;;;;3.90;2.97;;;16.30;1.00;;;;;;5015757;28;20190;-83
2022/07/10 05:00:14;;;;;;;6.90;2.77;;;16.40;1.00;;;;;;5018881;28;20651;-84
2022/07/10 05:02:39;;;;;;;7.93;2.87;;;16.40;1.00;;;;;;5017617;28;20566;-84
2022/07/10 05:05:05;;;;;;;10.10;3.33;;;16.40;1.00;;;;;;5016174;28;20436;-84
2022/07/10 05:07:31;;;;;;;7.33;3.70;;;16.40;1.00;;;;;;5015149;28;20174;-84
2022/07/10 05:09:57;;;;;;;4.40;2.90;;;16.50;1.00;;;;;;5013527;28;20517;-84
2022/07/10 05:12:22;;;;;;;9.90;3.67;;;16.50;1.00;;;;;;5017236;28;20304;-83
2022/07/10 05:14:48;;;;;;;11.43;2.97;;;16.70;1.00;;;;;;5018161;28;20186;-85
2022/07/10 05:17:13;;;;;;;4.43;2.30;;;16.60;1.00;;;;;;5016578;28;20194;-84
2022/07/10 05:19:39;;;;;;;6.13;2.60;;;16.60;1.00;;;;;;5012744;28;20265;-84
2022/07/10 05:22:04;;;;;;;7.03;2.77;;;16.60;1.00;;;;;;5016460;28;20792;-83
2022/07/10 05:24:30;;;;;;;5.33;3.07;;;16.60;1.00;;;;;;5032284;28;20245;-83
2022/07/10 05:26:55;;;;;;;6.83;2.80;;;16.50;1.00;;;;;;5017666;28;20190;-84
2022/07/10 05:29:21;;;;;;;4.47;2.50;;;16.50;1.00;;;;;;5014809;28;20702;-83
2022/07/10 05:31:46;;;;;;;7.27;2.90;;;16.60;1.00;;;;;;5021391;28;20187;-84
2022/07/10 05:34:12;;;;;;;6.60;2.70;;;16.70;1.00;;;;;;5015870;28;20213;-83
2022/07/10 05:36:37;;;;;;;4.40;3.00;;;16.80;1.00;;;;;;5017544;28;20281;-84
2022/07/10 05:39:03;;;;;;;3.90;2.70;;;16.90;1.00;;;;;;5016836;28;20198;-83
2022/07/10 05:41:29;;;;;;;7.93;2.90;;;17.00;1.00;;;;;;5008933;28;20181;-84
2022/07/10 05:43:55;;;;;;;6.57;3.13;;;17.10;1.00;;;;;;5021513;28;20281;-84
2022/07/10 05:46:20;;;;;;;4.90;2.60;;;17.20;1.00;;;;;;5016062;28;20563;-84
2022/07/10 05:48:46;;;;;;;11.00;3.17;;;17.20;1.00;;;;;;5017046;28;20449;-84
2022/07/10 05:51:11;;;;;;;6.80;3.20;;;17.40;1.00;;;;;;5017012;28;20254;-84
2022/07/10 05:53:37;;;;;;;5.00;2.60;;;17.50;1.00;;;;;;5015349;28;20221;-84
2022/07/10 05:56:03;;;;;;;6.73;2.80;;;17.60;1.00;;;;;;5012948;28;20684;-84
2022/07/10 05:58:29;;;;;;;7.53;2.67;;;17.80;99.90;;;;;;5032647;28;20452;-84
2022/07/10 06:00:55;;;;;;;6.87;2.90;;;18.00;99.90;;;;;;5018612;28;20566;-84
2022/07/10 06:03:21;;;;;;;8.80;2.70;;;18.10;99.90;;;;;;5017254;28;20221;-85
2022/07/10 06:05:47;;;;;;;10.07;3.30;;;18.10;99.90;;;;;;5016540;28;20442;-84
2022/07/10 06:08:13;;;;;;;5.77;2.77;;;18.20;99.90;;;;;;5016480;28;20494;-84
2022/07/10 06:10:40;;;;;;;7.13;2.80;;;18.40;99.90;;;;;;5013027;28;20437;-84
2022/07/10 06:13:06;;;;;;;4.63;2.50;;;18.60;99.90;;;;;;5017007;28;20457;-84
2022/07/10 06:15:31;;;;;;;4.73;2.43;;;18.90;99.90;;;;;;5028748;28;20442;-85
2022/07/10 06:17:57;;;;;;;5.10;2.10;;;19.10;99.90;;;;;;5018787;28;20434;-84
2022/07/10 06:20:24;;;;;;;8.17;2.77;;;19.30;99.90;;;;;;5020197;28;20262;-84
2022/07/10 06:22:50;;;;;;;12.93;3.37;;;19.30;99.90;;;;;;5030183;28;20563;-85
2022/07/10 06:25:16;;;;;;;7.87;2.40;;;19.30;99.90;;;;;;5020063;28;20876;-84
2022/07/10 06:27:41;;;;;;;9.70;2.40;;;19.20;99.90;;;;;;5018160;28;20681;-84
2022/07/10 06:30:07;;;;;;;4.73;2.00;;;19.20;99.90;;;;;;5019523;28;20265;-84
2022/07/10 06:32:33;;;;;;;9.27;2.30;;;19.20;99.90;;;;;;5019006;28;20205;-85
2022/07/10 06:34:58;;;;;;;6.20;2.10;;;19.30;99.90;;;;;;5018213;28;20214;-84
2022/07/10 06:37:24;;;;;;;8.03;2.13;;;19.40;99.90;;;;;;5018248;28;20716;-84
2022/07/10 06:39:50;;;;;;;8.47;2.47;;;19.60;99.90;;;;;;5017273;28;20194;-85
2022/07/10 06:42:16;;;;;;;18.80;4.03;;;19.60;99.90;;;;;;5020094;28;20229;-84
2022/07/10 06:44:45;;;;;;;8.77;2.50;;;19.60;99.90;;;;;;5017031;28;20209;-84
2022/07/10 06:49:57;;;;;;;5.00;2.83;;;19.50;99.90;;;;;;5023142;28;20495;-84
2022/07/10 06:52:23;;;;;;;5.50;2.60;;;19.40;99.90;;;;;;5022095;28;20566;-85
2022/07/10 06:54:49;;;;;;;4.07;2.00;;;19.30;99.90;;;;;;5021831;28;20195;-85
2022/07/10 06:57:15;;;;;;;6.67;2.60;;;19.20;99.90;;;;;;5035287;28;20446;-85
2022/07/10 06:59:40;;;;;;;6.43;2.23;;;19.00;99.90;;;;;;5019290;28;20255;-86
2022/07/10 07:02:06;;;;;;;5.33;2.53;;;18.90;99.90;;;;;;5020841;28;20194;-85
2022/07/10 07:04:31;;;;;;;4.83;2.30;;;18.90;99.90;;;;;;5018400;28;20203;-85
2022/07/10 07:06:57;;;;;;;8.23;1.90;;;18.90;99.90;;;;;;5020974;28;20190;-85
2022/07/10 07:09:23;;;;;;;13.13;3.13;;;18.90;99.90;;;;;;5017941;28;20270;-85
2022/07/10 07:11:48;;;;;;;10.53;2.57;;;18.90;99.90;;;;;;5021452;28;20199;-85
2022/07/10 07:14:14;;;;;;;8.37;2.47;;;19.10;99.90;;;;;;5019928;28;20605;-84
2022/07/10 07:16:43;;;;;;;6.10;2.03;;;19.10;99.90;;;;;;5016683;28;20305;-85
2022/07/10 07:19:11;;;;;;;7.97;3.40;;;19.20;99.90;;;;;;5018805;28;20190;-84
2022/07/10 07:24:21;;;;;;;8.23;2.30;;;19.20;99.90;;;;;;5016633;28;20504;-84
2022/07/10 07:26:47;;;;;;;7.20;2.13;;;19.30;99.90;;;;;;5017298;28;20950;-85
2022/07/10 07:29:14;;;;;;;6.80;1.90;;;19.30;99.90;;;;;;5018253;28;20185;-86
2022/07/10 07:31:39;;;;;;;7.00;1.77;;;19.40;99.90;;;;;;5019458;28;20438;-84
2022/07/10 07:34:05;;;;;;;5.20;1.83;;;19.50;99.90;;;;;;5019493;28;20717;-84
2022/07/10 07:36:31;;;;;;;13.60;2.27;;;19.60;99.90;;;;;;5018213;28;20182;-85
2022/07/10 07:38:56;;;;;;;10.57;2.33;;;19.80;99.90;;;;;;5016904;28;20214;-84
2022/07/10 07:41:22;;;;;;;5.97;1.90;;;19.80;99.90;;;;;;5018657;28;20433;-85
2022/07/10 07:43:48;;;;;;;4.80;1.77;;;19.90;99.90;;;;;;5015194;28;20237;-84
2022/07/10 07:46:14;;;;;;;4.10;1.97;;;20.10;99.90;;;;;;5018622;28;20191;-85
2022/07/10 07:48:40;;;;;;;10.47;2.93;;;20.10;99.90;;;;;;5018186;28;20439;-84
2022/07/10 07:51:06;;;;;;;8.17;2.17;;;20.30;99.90;;;;;;5018721;28;20433;-85
2022/07/10 07:53:32;;;;;;;5.37;1.77;;;20.50;99.90;;;;;;5018135;28;20461;-86
2022/07/10 07:55:58;;;;;;;6.23;2.03;;;20.80;99.90;;;;;;5017065;28;20198;-84
2022/07/10 07:58:23;;;;;;;7.40;1.77;;;21.20;99.90;;;;;;5017238;28;20772;-84
2022/07/10 08:00:49;;;;;;;7.27;2.30;;;21.60;99.90;;;;;;5014890;28;20209;-84
2022/07/10 08:03:15;;;;;;;4.33;1.90;;;22.40;99.90;;;;;;5013486;28;20311;-83
2022/07/10 08:05:41;;;;;;;6.90;2.20;;;23.40;99.90;;;;;;5015456;28;20653;-84
2022/07/10 08:08:08;;;;;;;5.77;2.17;;;24.60;99.90;;;;;;5014563;28;20456;-84
2022/07/10 08:10:34;;;;;;;9.77;2.43;;;25.10;99.90;;;;;;5013027;28;20448;-84
2022/07/10 08:13:00;;;;;;;4.13;1.93;;;27.10;99.90;;;;;;5013508;28;20457;-84
2022/07/10 08:15:26;;;;;;;4.73;2.17;;;27.50;99.90;;;;;;5011189;28;20465;-84
2022/07/10 08:17:53;;;;;;;6.70;1.70;;;27.40;99.90;;;;;;5013354;28;20193;-83
2022/07/10 08:20:19;;;;;;;5.03;1.90;;;27.00;99.90;;;;;;5031767;28;20183;-84
2022/07/10 08:22:46;;;;;;;4.70;1.87;;;26.50;99.90;;;;;;5016851;28;20469;-82
2022/07/10 08:25:12;;;;;;;3.97;1.30;;;26.20;99.90;;;;;;5018864;28;20434;-82
2022/07/10 08:27:38;;;;;;;6.70;1.80;;;26.00;99.90;;;;;;5018049;28;20437;-81
2022/07/10 08:30:05;;;;;;;4.40;1.20;;;25.60;99.90;;;;;;5027372;28;20662;-81
2022/07/10 08:32:31;;;;;;;4.40;1.93;;;25.20;99.90;;;;;;5015203;28;20546;-81
2022/07/10 08:34:58;;;;;;;5.20;1.70;;;24.70;99.90;;;;;;5013531;28;20869;-81
2022/07/10 08:37:24;;;;;;;4.13;1.90;;;24.30;99.90;;;;;;5025042;28;20452;-80
2022/07/10 08:39:52;;;;;;;4.73;1.80;;;24.20;99.90;;;;;;5014609;28;20539;-81
2022/07/10 08:42:20;;;;;;;5.17;1.60;;;24.40;99.90;;;;;;5029207;28;20467;-81
2022/07/10 08:44:46;;;;;;;6.73;1.70;;;24.50;99.90;;;;;;5012343;28;20448;-82
2022/07/10 08:47:12;;;;;;;6.53;1.63;;;24.20;99.90;;;;;;5012276;28;20457;-82
2022/07/10 08:49:46;;;;;;;8.03;2.00;;;24.00;99.90;;;;;;5029710;28;20186;-81
2022/07/10 08:52:25;;;;;;;5.70;1.77;;;23.60;99.90;;;;;;5013212;28;20445;-82
2022/07/10 08:54:51;;;;;;;4.50;1.77;;;23.40;99.90;;;;;;5011197;28;20456;-83
2022/07/10 08:57:18;;;;;;;6.80;1.57;;;23.20;99.90;;;;;;5011949;28;20536;-81
2022/07/10 08:59:44;;;;;;;8.10;1.73;;;22.90;99.90;;;;;;5013114;28;20444;-81
2022/07/10 09:02:09;;;;;;;6.00;1.87;;;22.60;99.90;;;;;;5029131;28;20471;-83
2022/07/10 09:04:35;;;;;;;6.83;2.23;;;22.20;99.90;;;;;;5028060;28;20462;-83
2022/07/10 09:07:00;;;;;;;4.20;1.30;;;21.80;99.90;;;;;;5011378;28;20195;-80
2022/07/10 09:09:26;;;;;;;4.00;1.70;;;21.50;99.90;;;;;;5012181;28;20193;-80
2022/07/10 09:11:57;;;;;;;7.60;1.80;;;21.20;99.90;;;;;;5009541;28;20201;-82
2022/07/10 09:14:25;;;;;;;4.67;2.40;;;20.90;99.90;;;;;;5014138;28;20189;-81
2022/07/10 09:16:51;;;;;;;5.77;1.90;;;20.80;99.90;;;;;;5012797;28;20456;-82
2022/07/10 09:19:24;;;;;;;6.97;2.47;;;20.70;99.90;;;;;;5013508;28;20859;-81
2022/07/10 09:22:04;;;;;;;7.10;1.80;;;20.70;99.90;;;;;;5014024;28;20476;-81
2022/07/10 09:24:36;;;;;;;4.90;1.93;;;20.70;99.90;;;;;;5011546;28;20440;-82
2022/07/10 09:27:04;;;;;;;7.53;2.30;;;20.70;99.90;;;;;;5020145;28;20437;-82
2022/07/10 09:29:33;;;;;;;7.40;2.53;;;20.80;99.90;;;;;;5013815;28;20465;-82
2022/07/10 09:32:01;;;;;;;8.30;2.20;;;20.90;99.90;;;;;;5012432;28;20455;-82
2022/07/10 09:34:38;;;;;;;9.30;1.90;;;20.80;99.90;;;;;;5015863;28;20456;-83
2022/07/10 09:37:19;;;;;;;7.40;2.70;;;20.90;99.90;;;;;;5011952;28;20436;-82
2022/07/10 09:39:54;;;;;;;5.20;2.20;;;20.80;99.90;;;;;;5005254;28;20806;-82
2022/07/10 09:42:34;;;;;;;4.07;2.30;;;20.80;99.90;;;;;;5013900;28;20853;-82
2022/07/10 09:45:17;;;;;;;7.53;2.33;;;20.90;99.90;;;;;;5014451;28;20449;-82
2022/07/10 09:47:57;;;;;;;5.30;3.53;;;20.90;99.90;;;;;;5012656;28;20441;-82
2022/07/10 09:50:28;;;;;;;5.60;2.63;;;20.80;99.90;;;;;;5013496;28;20456;-82
2022/07/10 09:53:04;;;;;;;4.03;2.10;;;20.90;99.90;;;;;;5014027;28;20926;-82
2022/07/10 09:55:33;;;;;;;3.20;2.30;;;20.90;99.90;;;;;;5014952;28;20516;-82
2022/07/10 09:58:01;;;;;;;4.80;2.83;;;21.10;99.90;;;;;;5005299;28;20988;-83
2022/07/10 10:00:29;;;;;;;8.40;4.83;;;21.50;99.90;;;;;;5005307;28;20446;-83
2022/07/10 10:03:06;;;;;;;7.37;3.40;;;21.80;99.90;;;;;;5024792;28;20475;-82
2022/07/10 10:05:43;;;;;;;10.33;2.90;;;22.30;99.90;;;;;;5026361;23;20519;-84
2022/07/10 10:08:36;;;;;;;3.20;1.90;;;22.90;99.90;;;;;;4988647;28;20973;-84
2022/07/10 10:11:03;;;;;;;7.80;2.30;;;23.40;99.90;;;;;;4981764;28;20439;-84
2022/07/10 10:13:37;;;;;;;7.00;2.30;;;23.90;99.90;;;;;;4992357;28;20506;-83
2022/07/10 10:16:06;;;;;;;7.37;2.47;;;24.70;99.90;;;;;;4986568;28;20461;-88
2022/07/10 10:18:32;;;;;;;5.80;2.60;;;25.70;99.90;;;;;;4990681;28;20864;-84
2022/07/10 10:20:57;;;;;;;3.97;2.87;;;27.20;99.90;;;;;;4992000;28;20538;-84
2022/07/10 10:23:24;;;;;;;3.87;1.90;;;27.80;99.90;;;;;;4990264;28;20227;-84
2022/07/10 10:25:57;;;;;;;4.13;2.00;;;29.50;99.90;;;;;;5004933;28;20293;-85
2022/07/10 10:28:24;;;;;;;7.70;2.07;;;29.60;99.90;;;;;;4984045;28;20486;-86
2022/07/10 10:30:53;;;;;;;6.13;2.33;;;29.00;99.90;;;;;;4988158;28;20823;-85
2022/07/10 10:33:42;;;;;;;5.00;1.80;;;28.20;99.90;;;;;;4994534;28;20510;-86
2022/07/10 10:36:13;;;;;;;3.70;2.20;;;27.50;99.90;;;;;;4987498;28;20463;-84
2022/07/10 10:38:55;;;;;;;8.10;2.63;;;26.80;99.90;;;;;;4991439;28;20473;-87
2022/07/10 10:41:40;;;;;;;4.67;2.00;;;26.70;99.90;;;;;;4990281;28;20514;-85
2022/07/10 10:44:08;;;;;;;2.87;1.93;;;26.40;99.90;;;;;;4991026;28;20442;-86
2022/07/10 10:47:05;;;;;;;4.37;1.67;;;27.30;99.90;;;;;;4993210;28;20446;-85
2022/07/10 10:49:59;;;;;;;3.40;1.97;;;27.30;99.90;;;;;;4987959;28;20435;-87
2022/07/10 10:52:26;;;;;;;5.13;2.00;;;27.50;99.90;;;;;;4993676;28;20494;-85
2022/07/10 10:54:57;;;;;;;3.80;1.73;;;27.10;99.90;;;;;;5002268;28;20470;-85
2022/07/10 10:57:45;;;;;;;3.60;1.50;;;27.10;99.90;;;;;;4994699;28;20458;-85
2022/07/10 11:00:15;;;;;;;5.03;1.87;;;27.50;99.90;;;;;;4993383;28;20432;-85
2022/07/10 11:02:47;;;;;;;5.27;1.80;;;28.10;99.90;;;;;;4992040;28;20462;-87
2022/07/10 11:07:58;;;;;;;5.17;1.50;;;29.70;99.90;;;;;;4989908;28;20454;-86
2022/07/10 11:10:34;;;;;;;6.20;1.97;;;30.10;99.90;;;;;;5005273;28;20438;-86
2022/07/10 11:13:04;;;;;;;3.40;1.70;;;29.30;99.90;;;;;;4992342;28;20427;-84
2022/07/10 11:15:42;;;;;;;6.17;1.90;;;28.80;99.90;;;;;;4988089;28;20429;-86
2022/07/10 11:18:13;;;;;;;3.23;2.00;;;28.50;99.90;;;;;;4995286;28;20411;-85
2022/07/10 11:21:00;;;;;;;4.90;1.70;;;28.60;99.90;;;;;;4995723;28;20445;-85
2022/07/10 11:23:58;;;;;;;7.90;2.30;;;28.30;99.10;;;;;;4988439;28;20467;-85
2022/07/10 11:26:39;;;;;;;6.07;2.20;;;27.10;96.40;;;;;;4995030;28;20429;-84
2022/07/10 11:29:06;;;;;;;4.63;1.80;;;26.70;96.20;;;;;;4995547;28;20557;-84
2022/07/10 11:31:37;;;;;;;4.43;1.80;;;26.60;96.80;;;;;;4998139;28;20399;-84
2022/07/10 11:34:10;;;;;;;4.93;1.83;;;27.90;99.00;;;;;;4995483;28;20411;-84
2022/07/10 11:36:39;;;;;;;3.77;2.00;;;29.70;99.90;;;;;;4994871;28;20496;-84
2022/07/10 11:39:06;;;;;;;4.63;2.23;;;31.20;99.90;;;;;;4995896;28;20426;-84
2022/07/10 11:41:33;;;;;;;3.83;2.50;;;31.70;99.90;;;;;;4995603;28;20407;-85
2022/07/10 11:44:03;;;;;;;5.00;2.03;;;31.90;99.80;;;;;;4995271;28;20789;-83
2022/07/10 11:46:34;;;;;;;8.20;2.13;;;32.00;98.00;;;;;;4994700;28;20430;-84
2022/07/10 11:49:05;;;;;;;5.70;2.53;;;31.80;96.80;;;;;;4995261;28;20415;-84
2022/07/10 11:51:36;;;;;;;5.10;2.30;;;31.40;94.50;;;;;;4994096;28;20973;-84
2022/07/10 11:54:18;;;;;;;7.13;1.93;;;31.60;94.10;;;;;;4995462;28;20405;-84
2022/07/10 11:56:52;;;;;;;5.70;1.93;;;31.10;91.70;;;;;;4994613;28;20950;-84
2022/07/10 11:59:19;;;;;;;7.90;2.50;;;30.50;89.60;;;;;;4995362;28;20433;-84
2022/07/10 12:01:51;;;;;;;5.27;2.50;;;30.00;86.90;;;;;;4995080;28;20422;-84
2022/07/10 12:04:24;;;;;;;9.03;2.40;;;29.70;85.70;;;;;;4995014;28;20407;-84
2022/07/10 12:06:51;;;;;;;5.03;2.40;;;29.20;84.00;;;;;;4994476;28;20469;-84
2022/07/10 12:09:19;;;;;;;7.17;2.40;;;29.10;82.60;;;;;;4994873;28;20949;-84
2022/07/10 12:12:07;;;;;;;5.10;2.60;;;28.80;81.90;;;;;;4994824;28;20410;-85
2022/07/10 12:14:34;;;;;;;7.27;2.47;;;28.20;80.30;;;;;;4995225;28;20482;-84
2022/07/10 12:17:01;;;;;;;7.20;2.27;;;27.20;77.30;;;;;;4994593;28;20481;-84
2022/07/10 12:19:37;;;;;;;7.53;2.60;;;26.40;76.80;;;;;;4995521;28;20410;-84
2022/07/10 12:22:04;;;;;;;10.43;2.90;;;25.70;74.40;;;;;;4996447;28;20461;-84
2022/07/10 12:24:30;;;;;;;8.27;2.90;;;25.00;73.70;;;;;;5000844;28;20416;-84
2022/07/10 12:26:56;;;;;;;5.63;2.60;;;24.60;74.20;;;;;;4993577;28;20440;-84
2022/07/10 12:29:28;;;;;;;6.87;2.50;;;24.30;76.30;;;;;;4995639;28;21061;-84
2022/07/10 12:32:01;;;;;;;6.10;2.50;;;24.30;78.70;;;;;;4994332;28;20176;-83
2022/07/10 12:34:42;;;;;;;4.60;2.63;;;24.20;83.30;;;;;;4995732;28;20779;-84
2022/07/10 12:37:09;;;;;;;5.70;2.43;;;24.20;86.20;;;;;;4993861;28;20445;-84
2022/07/10 12:39:38;;;;;;;12.50;2.57;;;24.30;88.70;;;;;;4994495;28;20519;-84
2022/07/10 12:42:05;;;;;;;5.17;2.40;;;24.50;90.70;;;;;;4995591;28;20513;-83
2022/07/10 12:44:35;;;;;;;4.63;2.07;;;25.20;92.00;;;;;;4994237;28;20419;-84
2022/07/10 12:47:11;;;;;;;3.53;2.10;;;26.30;93.90;;;;;;4993614;28;20434;-87
2022/07/10 12:49:58;;;;;;;8.80;2.80;;;27.00;95.40;;;;;;5008767;28;20430;-86
2022/07/10 12:52:31;;;;;;;6.13;2.83;;;27.70;96.20;;;;;;4993773;28;20799;-86
2022/07/10 12:55:22;;;;;;;4.07;2.40;;;28.20;96.60;;;;;;4992316;28;20510;-86
2022/07/10 12:58:08;;;;;;;3.63;2.17;;;28.90;96.50;;;;;;4993502;28;20410;-87
2022/07/10 13:00:42;;;;;;;5.07;2.70;;;29.70;97.40;;;;;;4993646;28;20415;-86
2022/07/10 13:03:10;;;;;;;5.77;2.47;;;30.20;96.80;;;;;;4993957;28;20538;-86
2022/07/10 13:05:39;;;;;;;6.23;2.53;;;30.30;95.30;;;;;;4996651;28;20427;-87